createdAt,value
2018-12-17T00:01:54.879Z,2.30
2018-12-17T00:04:25.786Z,2.20
2018-12-17T00:07:00.006Z,2.20
2018-12-17T00:12:16.366Z,2.20
2018-12-17T00:14:47.005Z,2.20
2018-12-17T00:17:17.745Z,2.20
2018-12-17T00:27:21.627Z,2.30
2018-12-17T00:29:52.384Z,2.30
2018-12-17T00:34:53.449Z,2.30
2018-12-17T00:39:54.735Z,2.30
2018-12-17T00:55:03.644Z,2.30
2018-12-17T01:15:12.188Z,2.20
2018-12-17T01:17:42.920Z,2.20
2018-12-17T01:20:13.244Z,2.30
2018-12-17T01:25:14.504Z,2.30
2018-12-17T01:32:47.268Z,2.30
2018-12-17T01:42:48.511Z,2.30
2018-12-17T01:50:20.584Z,2.40
2018-12-17T01:55:24.856Z,2.30
2018-12-17T02:02:56.472Z,2.30
2018-12-17T02:40:37.207Z,2.20
2018-12-17T02:45:40.341Z,2.20
2018-12-17T02:48:11.380Z,2.10
2018-12-17T02:50:45.590Z,2.10
2018-12-17T02:55:47.394Z,2.40
2018-12-17T03:00:55.701Z,2.20
2018-12-17T03:05:57.783Z,2.20
2018-12-17T03:10:59.070Z,2.40
2018-12-17T03:16:03.164Z,2.40
2018-12-17T03:18:34.040Z,2.40
2018-12-17T03:26:04.574Z,2.80
2018-12-17T03:31:10.250Z,2.50
2018-12-17T03:36:14.848Z,2.50
2018-12-17T03:41:16.247Z,2.60
2018-12-17T03:46:19.020Z,2.60
2018-12-17T03:48:49.899Z,2.60
2018-12-17T03:58:59.040Z,2.60
2018-12-17T04:08:56.186Z,2.70
2018-12-17T04:11:26.988Z,2.70
2018-12-17T04:21:38.130Z,2.60
2018-12-17T04:24:09.236Z,2.60
2018-12-17T04:31:40.850Z,2.70
2018-12-17T04:39:12.897Z,2.70
2018-12-17T04:44:14.002Z,2.70
2018-12-17T04:46:44.716Z,2.60
2018-12-17T04:51:46.224Z,2.60
2018-12-17T04:56:47.192Z,2.70
2018-12-17T05:01:48.710Z,2.70
2018-12-17T05:06:50.830Z,2.90
2018-12-17T05:09:22.657Z,2.90
2018-12-17T05:11:54.496Z,2.80
2018-12-17T05:16:58.837Z,2.80
2018-12-17T05:22:01.188Z,2.80
2018-12-17T05:39:37.230Z,2.90
2018-12-17T05:42:08.224Z,2.90
2018-12-17T05:47:09.485Z,2.70
2018-12-17T05:52:10.624Z,2.70
2018-12-17T05:57:11.839Z,2.90
2018-12-17T05:59:42.752Z,2.90
2018-12-17T06:04:44.100Z,2.90
2018-12-17T06:07:14.886Z,2.90
2018-12-17T06:14:46.495Z,2.90
2018-12-17T06:17:17.381Z,2.80
2018-12-17T06:29:49.400Z,2.90
2018-12-17T06:32:20.400Z,2.80
2018-12-17T06:37:21.456Z,2.90
2018-12-17T06:39:52.238Z,2.90
2018-12-17T06:42:23.069Z,2.90
2018-12-17T06:44:53.876Z,2.90
2018-12-17T06:47:24.753Z,2.90
2018-12-17T06:57:26.402Z,2.90
2018-12-17T06:59:57.330Z,3.00
2018-12-17T07:07:34.727Z,2.90
2018-12-17T07:12:34.764Z,2.90
2018-12-17T07:17:33.645Z,3.00
2018-12-17T07:20:04.781Z,3.10
2018-12-17T07:22:35.594Z,3.00
2018-12-17T07:25:06.449Z,3.10
2018-12-17T07:27:37.230Z,3.10
2018-12-17T07:30:10.836Z,3.10
2018-12-17T07:35:11.974Z,3.20
2018-12-17T07:45:13.310Z,3.20
2018-12-17T07:55:14.619Z,3.20
2018-12-17T08:05:17.290Z,3.30
2018-12-17T08:15:18.115Z,3.40
2018-12-17T08:22:51.720Z,3.40
2018-12-17T09:02:58.366Z,3.70
2018-12-17T09:05:29.237Z,3.70
2018-12-17T09:10:30.303Z,3.80
2018-12-17T09:15:33.968Z,3.80
2018-12-17T09:23:05.432Z,3.90
2018-12-17T09:28:07.128Z,4.10
2018-12-17T09:30:41.229Z,4.20
2018-12-17T09:33:11.734Z,4.20
2018-12-17T09:48:13.472Z,4.60
2018-12-17T09:58:15.378Z,4.80
2018-12-17T10:03:15.740Z,4.80
2018-12-17T10:05:47.046Z,4.90
2018-12-17T10:10:48.184Z,4.80
2018-12-17T10:15:51.886Z,4.80
2018-12-17T10:18:22.746Z,4.90
2018-12-17T10:20:53.636Z,5.00
2018-12-17T10:23:24.711Z,4.90
2018-12-17T10:25:55.599Z,4.80
2018-12-17T10:33:26.839Z,4.70
2018-12-17T10:35:57.748Z,4.70
2018-12-17T10:40:58.593Z,4.60
2018-12-17T10:43:29.878Z,4.70
2018-12-17T10:46:00.626Z,4.70
2018-12-17T10:58:32.552Z,4.90
2018-12-17T11:01:12.392Z,5.10
2018-12-17T11:06:21.800Z,5.10
2018-12-17T11:08:53.714Z,5.20
2018-12-17T11:11:24.604Z,5.10
2018-12-17T11:16:24.952Z,5.00
2018-12-17T11:26:25.799Z,5.10
2018-12-17T11:28:57.061Z,5.10
2018-12-17T11:31:27.963Z,5.10
2018-12-17T11:33:59.855Z,5.00
2018-12-17T11:36:34.007Z,5.00
2018-12-17T11:39:07.367Z,5.10
2018-12-17T11:41:38.694Z,5.00
2018-12-17T11:44:09.713Z,5.00
2018-12-17T11:46:40.998Z,5.00
2018-12-17T11:51:42.504Z,4.90
2018-12-17T11:57:50.908Z,5.00
2018-12-17T12:00:25.632Z,4.90
2018-12-17T12:02:59.198Z,4.90
2018-12-17T12:05:29.490Z,5.00
2018-12-17T12:10:31.255Z,5.00
2018-12-17T12:13:02.355Z,4.90
2018-12-17T12:20:34.655Z,5.10
2018-12-17T12:28:07.277Z,5.30
2018-12-17T12:43:35.678Z,5.40
2018-12-17T12:51:20.970Z,5.40
2018-12-17T12:53:52.268Z,5.40
2018-12-17T12:56:23.200Z,5.40
2018-12-17T12:58:54.258Z,5.30
2018-12-17T13:01:25.419Z,5.40
2018-12-17T13:03:56.307Z,5.40
2018-12-17T13:06:27.219Z,5.40
2018-12-17T13:11:28.642Z,5.50
2018-12-17T13:16:31.563Z,5.50
2018-12-17T13:21:33.181Z,5.50
2018-12-17T13:24:04.298Z,5.50
2018-12-17T13:26:35.618Z,5.50
2018-12-17T13:29:06.488Z,5.50
2018-12-17T13:31:37.390Z,5.50
2018-12-17T13:34:08.218Z,5.40
2018-12-17T13:39:10.426Z,5.60
2018-12-17T13:41:41.225Z,5.60
2018-12-17T13:44:12.013Z,5.50
2018-12-17T13:46:43.253Z,5.50
2018-12-17T13:51:52.151Z,5.50
2018-12-17T13:54:23.403Z,5.50
2018-12-17T13:56:54.359Z,5.50
2018-12-17T13:59:25.246Z,5.50
2018-12-17T14:02:18.952Z,5.50
2018-12-17T14:04:49.753Z,5.50
2018-12-17T14:15:14.696Z,5.50
2018-12-17T14:17:47.460Z,5.50
2018-12-17T14:26:22.710Z,5.40
2018-12-17T14:31:28.935Z,5.50
2018-12-17T14:36:29.507Z,5.50
2018-12-17T14:39:01.410Z,5.50
2018-12-17T14:41:32.754Z,5.50
2018-12-17T14:44:40.643Z,5.60
2018-12-17T14:47:12.192Z,5.40
2018-12-17T14:57:14.408Z,5.50
2018-12-17T15:04:46.203Z,5.50
2018-12-17T15:12:17.659Z,5.40
2018-12-17T15:22:19.588Z,5.60
2018-12-17T15:29:51.935Z,5.50
2018-12-17T15:32:23.747Z,5.50
2018-12-17T15:34:54.925Z,5.50
2018-12-17T15:37:25.722Z,5.50
2018-12-17T15:39:56.588Z,5.60
2018-12-17T15:42:27.791Z,5.50
2018-12-17T15:50:00.662Z,5.60
2018-12-17T15:52:31.628Z,5.50
2018-12-17T15:57:35.606Z,5.50
2018-12-17T16:00:09.606Z,5.60
2018-12-17T16:07:44.341Z,5.50
2018-12-17T16:10:16.338Z,5.60
2018-12-17T16:25:21.589Z,5.70
2018-12-17T16:27:52.426Z,5.70
2018-12-17T16:30:23.709Z,5.80
2018-12-17T16:37:56.428Z,5.70
2018-12-17T16:42:58.192Z,5.80
2018-12-17T16:55:37.894Z,6.00
2018-12-17T17:00:39.549Z,6.10
2018-12-17T17:05:42.637Z,6.20
2018-12-17T17:08:12.826Z,6.10
2018-12-17T17:10:43.775Z,6.20
2018-12-17T17:18:16.164Z,5.90
2018-12-17T17:23:17.598Z,6.00
2018-12-17T17:28:19.824Z,6.00
2018-12-17T17:33:27.414Z,6.00
2018-12-17T17:35:59.232Z,6.10
2018-12-17T17:46:01.702Z,6.20
2018-12-17T17:58:38.403Z,6.30
2018-12-17T18:03:44.485Z,6.30
2018-12-17T18:11:19.539Z,6.30
2018-12-17T18:13:50.583Z,6.30
2018-12-17T18:16:24.908Z,6.30
2018-12-17T18:18:55.816Z,6.30
2018-12-17T18:28:58.639Z,6.30
2018-12-17T18:41:31.761Z,6.30
2018-12-17T18:46:35.298Z,6.30
2018-12-17T18:49:07.189Z,6.40
2018-12-17T18:51:38.459Z,6.50
2018-12-17T18:54:09.266Z,6.50
2018-12-17T18:56:40.208Z,6.60
2018-12-17T18:59:11.995Z,6.50
2018-12-17T19:01:46.242Z,6.50
2018-12-17T19:04:18.036Z,6.50
2018-12-17T19:06:48.971Z,6.40
2018-12-17T19:11:50.438Z,6.50
2018-12-17T19:16:55.638Z,8.00
2018-12-17T19:21:57.276Z,6.40
2018-12-17T19:24:28.099Z,6.50
2018-12-17T19:26:58.866Z,6.40
2018-12-17T19:32:00.405Z,6.50
2018-12-17T19:34:31.717Z,6.50
2018-12-17T19:44:39.721Z,6.30
2018-12-17T19:47:10.817Z,6.30
2018-12-17T19:52:13.841Z,6.40
2018-12-17T19:59:46.043Z,6.40
2018-12-17T20:09:51.379Z,6.40
2018-12-17T20:12:24.341Z,6.30
2018-12-17T20:14:56.376Z,6.20
2018-12-17T20:17:27.958Z,6.30
2018-12-17T20:25:05.373Z,6.40
2018-12-17T20:27:36.210Z,6.40
2018-12-17T20:37:42.173Z,6.40
2018-12-17T20:42:44.880Z,6.40
2018-12-17T20:45:17.640Z,6.30
2018-12-17T20:50:20.710Z,6.30
2018-12-17T20:55:22.435Z,6.30
2018-12-17T20:57:54.616Z,6.20
2018-12-17T21:03:00.502Z,6.20
2018-12-17T21:05:33.711Z,6.20
2018-12-17T21:10:35.736Z,6.20
2018-12-17T21:13:07.615Z,6.20
2018-12-17T21:15:42.899Z,6.20
2018-12-17T21:18:14.615Z,6.20
2018-12-17T21:20:45.542Z,6.30
2018-12-17T21:25:47.023Z,6.20
2018-12-17T21:28:19.399Z,6.10
2018-12-17T21:38:27.537Z,6.20
2018-12-17T21:56:28.699Z,6.30
2018-12-17T22:01:37.714Z,6.30
2018-12-17T22:22:00.065Z,6.50
2018-12-17T22:24:32.475Z,6.40
2018-12-17T22:55:22.952Z,6.10
2018-12-17T23:17:46.177Z,5.90
2018-12-17T23:25:34.359Z,5.80
2018-12-17T23:34:06.451Z,5.60
2018-12-17T23:36:51.819Z,5.60
2018-12-17T23:39:29.493Z,5.60
2018-12-17T23:42:01.288Z,5.40
2018-12-17T23:44:36.598Z,5.40
2018-12-17T23:49:38.404Z,5.60
2018-12-17T23:54:40.417Z,5.60
